sensor_id;sensor_type;location;lat;lon;timestamp;temperature;humidity
54642;DHT22;40536;53.194;5.728;2022-11-24T00:02:07;8.10;99.90
54642;DHT22;40536;53.194;5.728;2022-11-24T00:04:35;7.10;99.90
54642;DHT22;40536;53.194;5.728;2022-11-24T00:07:02;6.10;99.90
54642;DHT22;40536;53.194;5.728;2022-11-24T00:09:35;7.20;99.90
54642;DHT22;40536;53.194;5.728;2022-11-24T00:12:07;6.60;99.90
54642;DHT22;40536;53.194;5.728;2022-11-24T00:14:45;6.20;99.90
54642;DHT22;40536;53.194;5.728;2022-11-24T00:17:18;6.60;99.90
54642;DHT22;40536;53.194;5.728;2022-11-24T00:19:52;7.40;99.90
54642;DHT22;40536;53.194;5.728;2022-11-24T00:22:22;7.20;99.90
54642;DHT22;40536;53.194;5.728;2022-11-24T00:24:50;7.20;99.90
54642;DHT22;40536;53.194;5.728;2022-11-24T00:27:18;7.30;99.90
54642;DHT22;40536;53.194;5.728;2022-11-24T00:30:07;8.10;99.90
54642;DHT22;40536;53.194;5.728;2022-11-24T00:33:06;6.70;99.90
54642;DHT22;40536;53.194;5.728;2022-11-24T00:35:37;7.30;99.90
54642;DHT22;40536;53.194;5.728;2022-11-24T00:38:06;7.40;99.90
54642;DHT22;40536;53.194;5.728;2022-11-24T00:40:32;7.50;99.90
54642;DHT22;40536;53.194;5.728;2022-11-24T00:42:57;7.50;99.90
54642;DHT22;40536;53.194;5.728;2022-11-24T00:45:25;7.60;99.90
54642;DHT22;40536;53.194;5.728;2022-11-24T00:47:50;7.70;99.90
54642;DHT22;40536;53.194;5.728;2022-11-24T00:50:16;6.90;99.90
54642;DHT22;40536;53.194;5.728;2022-11-24T00:52:42;7.50;99.90
54642;DHT22;40536;53.194;5.728;2022-11-24T00:55:09;6.70;99.90
54642;DHT22;40536;53.194;5.728;2022-11-24T00:57:38;7.50;99.90
54642;DHT22;40536;53.194;5.728;2022-11-24T01:00:16;8.10;99.90
54642;DHT22;40536;53.194;5.728;2022-11-24T01:02:45;7.90;99.90
54642;DHT22;40536;53.194;5.728;2022-11-24T01:05:14;7.60;99.90
54642;DHT22;40536;53.194;5.728;2022-11-24T01:07:40;8.60;99.90
54642;DHT22;40536;53.194;5.728;2022-11-24T01:10:10;7.70;99.90
54642;DHT22;40536;53.194;5.728;2022-11-24T01:12:44;7.70;99.90
54642;DHT22;40536;53.194;5.728;2022-11-24T01:15:13;7.70;99.90
54642;DHT22;40536;53.194;5.728;2022-11-24T01:17:50;7.70;99.90
54642;DHT22;40536;53.194;5.728;2022-11-24T01:20:50;7.80;99.90
54642;DHT22;40536;53.194;5.728;2022-11-24T01:24:06;6.30;99.90
54642;DHT22;40536;53.194;5.728;2022-11-24T01:29:40;6.50;99.90
54642;DHT22;40536;53.194;5.728;2022-11-24T01:32:22;7.30;99.90
54642;DHT22;40536;53.194;5.728;2022-11-24T01:34:51;6.90;99.90
54642;DHT22;40536;53.194;5.728;2022-11-24T01:37:20;8.00;99.90
54642;DHT22;40536;53.194;5.728;2022-11-24T01:39:59;8.00;99.90
54642;DHT22;40536;53.194;5.728;2022-11-24T01:42:41;8.00;99.90
54642;DHT22;40536;53.194;5.728;2022-11-24T01:45:46;6.80;99.90
54642;DHT22;40536;53.194;5.728;2022-11-24T01:48:42;8.10;99.90
54642;DHT22;40536;53.194;5.728;2022-11-24T01:55:04;8.00;99.90
54642;DHT22;40536;53.194;5.728;2022-11-24T01:58:10;8.10;99.90
54642;DHT22;40536;53.194;5.728;2022-11-24T02:03:56;8.00;99.90
54642;DHT22;40536;53.194;5.728;2022-11-24T02:10:29;5.60;99.90
54642;DHT22;40536;53.194;5.728;2022-11-24T02:13:55;6.60;99.90
54642;DHT22;40536;53.194;5.728;2022-11-24T02:17:07;8.00;99.90
54642;DHT22;40536;53.194;5.728;2022-11-24T02:19:45;8.00;99.90
54642;DHT22;40536;53.194;5.728;2022-11-24T02:28:52;7.60;99.90
54642;DHT22;40536;53.194;5.728;2022-11-24T02:31:30;8.30;99.90
54642;DHT22;40536;53.194;5.728;2022-11-24T02:34:14;7.90;99.90
54642;DHT22;40536;53.194;5.728;2022-11-24T02:37:23;7.80;99.90
54642;DHT22;40536;53.194;5.728;2022-11-24T02:40:01;7.80;99.90
54642;DHT22;40536;53.194;5.728;2022-11-24T02:45:38;8.70;99.90
54642;DHT22;40536;53.194;5.728;2022-11-24T02:48:19;7.90;99.90
54642;DHT22;40536;53.194;5.728;2022-11-24T02:51:12;7.70;99.90
54642;DHT22;40536;53.194;5.728;2022-11-24T02:53:56;6.90;99.90
54642;DHT22;40536;53.194;5.728;2022-11-24T02:56:33;8.10;99.90
54642;DHT22;40536;53.194;5.728;2022-11-24T02:59:21;7.40;99.90
54642;DHT22;40536;53.194;5.728;2022-11-24T03:02:05;7.60;99.90
54642;DHT22;40536;53.194;5.728;2022-11-24T03:05:03;7.10;99.90
54642;DHT22;40536;53.194;5.728;2022-11-24T03:07:32;6.70;99.90
54642;DHT22;40536;53.194;5.728;2022-11-24T03:10:18;7.40;99.90
54642;DHT22;40536;53.194;5.728;2022-11-24T03:12:51;6.50;99.90
54642;DHT22;40536;53.194;5.728;2022-11-24T03:15:17;7.40;99.90
54642;DHT22;40536;53.194;5.728;2022-11-24T03:17:55;7.70;99.90
54642;DHT22;40536;53.194;5.728;2022-11-24T03:20:24;6.20;99.90
54642;DHT22;40536;53.194;5.728;2022-11-24T03:22:50;8.50;99.90
54642;DHT22;40536;53.194;5.728;2022-11-24T03:25:19;6.90;99.90
54642;DHT22;40536;53.194;5.728;2022-11-24T03:28:07;7.20;99.90
54642;DHT22;40536;53.194;5.728;2022-11-24T03:30:47;6.40;99.90
54642;DHT22;40536;53.194;5.728;2022-11-24T03:33:18;5.80;99.90
54642;DHT22;40536;53.194;5.728;2022-11-24T03:36:07;7.70;99.90
54642;DHT22;40536;53.194;5.728;2022-11-24T03:38:51;7.50;99.90
54642;DHT22;40536;53.194;5.728;2022-11-24T03:41:42;7.40;99.90
54642;DHT22;40536;53.194;5.728;2022-11-24T03:44:48;6.80;99.90
54642;DHT22;40536;53.194;5.728;2022-11-24T03:47:29;6.60;99.90
54642;DHT22;40536;53.194;5.728;2022-11-24T03:50:13;7.60;99.90
54642;DHT22;40536;53.194;5.728;2022-11-24T03:52:45;7.70;99.90
54642;DHT22;40536;53.194;5.728;2022-11-24T03:55:31;8.60;99.90
54642;DHT22;40536;53.194;5.728;2022-11-24T03:58:00;8.00;99.90
54642;DHT22;40536;53.194;5.728;2022-11-24T04:00:43;7.60;99.90
54642;DHT22;40536;53.194;5.728;2022-11-24T04:07:00;7.00;99.90
54642;DHT22;40536;53.194;5.728;2022-11-24T04:09:34;7.90;99.90
54642;DHT22;40536;53.194;5.728;2022-11-24T04:12:03;7.60;99.90
54642;DHT22;40536;53.194;5.728;2022-11-24T04:14:59;7.50;99.90
54642;DHT22;40536;53.194;5.728;2022-11-24T04:17:31;8.90;99.90
54642;DHT22;40536;53.194;5.728;2022-11-24T04:20:02;7.50;99.90
54642;DHT22;40536;53.194;5.728;2022-11-24T04:22:47;7.40;99.90
54642;DHT22;40536;53.194;5.728;2022-11-24T04:28:41;7.40;99.90
54642;DHT22;40536;53.194;5.728;2022-11-24T04:31:30;7.40;99.90
54642;DHT22;40536;53.194;5.728;2022-11-24T04:34:14;7.20;99.90
54642;DHT22;40536;53.194;5.728;2022-11-24T04:36:43;7.20;99.90
54642;DHT22;40536;53.194;5.728;2022-11-24T04:39:15;8.20;99.90
54642;DHT22;40536;53.194;5.728;2022-11-24T04:41:48;8.50;99.90
54642;DHT22;40536;53.194;5.728;2022-11-24T04:44:17;7.20;99.90
54642;DHT22;40536;53.194;5.728;2022-11-24T04:46:52;7.40;99.90
54642;DHT22;40536;53.194;5.728;2022-11-24T04:49:54;7.30;99.90
54642;DHT22;40536;53.194;5.728;2022-11-24T04:52:29;7.70;99.90
54642;DHT22;40536;53.194;5.728;2022-11-24T04:55:28;7.20;99.90
54642;DHT22;40536;53.194;5.728;2022-11-24T04:58:12;6.70;99.90
54642;DHT22;40536;53.194;5.728;2022-11-24T05:00:45;6.00;99.90
54642;DHT22;40536;53.194;5.728;2022-11-24T05:03:29;6.10;99.90
54642;DHT22;40536;53.194;5.728;2022-11-24T05:06:25;7.50;99.90
54642;DHT22;40536;53.194;5.728;2022-11-24T05:08:58;8.50;99.90
54642;DHT22;40536;53.194;5.728;2022-11-24T05:11:32;7.10;99.90
54642;DHT22;40536;53.194;5.728;2022-11-24T05:14:02;7.60;99.90
54642;DHT22;40536;53.194;5.728;2022-11-24T05:16:28;8.60;99.90
54642;DHT22;40536;53.194;5.728;2022-11-24T05:19:07;6.70;99.90
54642;DHT22;40536;53.194;5.728;2022-11-24T05:21:50;7.10;99.90
54642;DHT22;40536;53.194;5.728;2022-11-24T05:24:23;8.00;99.90
54642;DHT22;40536;53.194;5.728;2022-11-24T05:27:05;7.10;99.90
54642;DHT22;40536;53.194;5.728;2022-11-24T05:29:34;7.90;99.90
54642;DHT22;40536;53.194;5.728;2022-11-24T05:34:58;6.90;99.90
54642;DHT22;40536;53.194;5.728;2022-11-24T05:37:41;6.60;99.90
54642;DHT22;40536;53.194;5.728;2022-11-24T05:40:13;7.30;99.90
54642;DHT22;40536;53.194;5.728;2022-11-24T05:42:43;7.50;99.90
54642;DHT22;40536;53.194;5.728;2022-11-24T05:45:39;8.20;99.90
54642;DHT22;40536;53.194;5.728;2022-11-24T05:48:18;7.40;99.90
54642;DHT22;40536;53.194;5.728;2022-11-24T05:50:54;8.00;99.90
54642;DHT22;40536;53.194;5.728;2022-11-24T05:53:43;6.70;99.90
54642;DHT22;40536;53.194;5.728;2022-11-24T05:56:12;9.40;99.90
54642;DHT22;40536;53.194;5.728;2022-11-24T05:58:41;6.20;99.90
54642;DHT22;40536;53.194;5.728;2022-11-24T06:01:14;7.50;99.90
54642;DHT22;40536;53.194;5.728;2022-11-24T06:03:49;6.60;99.90
54642;DHT22;40536;53.194;5.728;2022-11-24T06:06:15;7.30;99.90
54642;DHT22;40536;53.194;5.728;2022-11-24T06:08:41;6.10;99.90
54642;DHT22;40536;53.194;5.728;2022-11-24T06:11:07;7.40;99.90
54642;DHT22;40536;53.194;5.728;2022-11-24T06:13:43;7.30;99.90
54642;DHT22;40536;53.194;5.728;2022-11-24T06:16:10;8.20;99.90
54642;DHT22;40536;53.194;5.728;2022-11-24T06:18:36;7.30;99.90
54642;DHT22;40536;53.194;5.728;2022-11-24T06:21:03;8.60;99.90
54642;DHT22;40536;53.194;5.728;2022-11-24T06:23:28;7.30;99.90
54642;DHT22;40536;53.194;5.728;2022-11-24T06:25:59;7.30;99.90
54642;DHT22;40536;53.194;5.728;2022-11-24T06:28:26;8.70;99.90
54642;DHT22;40536;53.194;5.728;2022-11-24T06:30:52;7.60;99.90
54642;DHT22;40536;53.194;5.728;2022-11-24T06:33:18;8.80;99.90
54642;DHT22;40536;53.194;5.728;2022-11-24T06:35:44;8.10;99.90
54642;DHT22;40536;53.194;5.728;2022-11-24T06:38:10;8.30;99.90
54642;DHT22;40536;53.194;5.728;2022-11-24T06:40:35;7.40;99.90
54642;DHT22;40536;53.194;5.728;2022-11-24T06:43:01;8.10;99.90
54642;DHT22;40536;53.194;5.728;2022-11-24T06:45:27;8.40;99.90
54642;DHT22;40536;53.194;5.728;2022-11-24T06:47:53;7.20;99.90
54642;DHT22;40536;53.194;5.728;2022-11-24T06:50:19;6.10;99.90
54642;DHT22;40536;53.194;5.728;2022-11-24T06:52:45;8.10;99.90
54642;DHT22;40536;53.194;5.728;2022-11-24T06:55:11;7.20;99.90
54642;DHT22;40536;53.194;5.728;2022-11-24T06:57:37;7.00;99.90
54642;DHT22;40536;53.194;5.728;2022-11-24T07:00:06;7.00;99.90
54642;DHT22;40536;53.194;5.728;2022-11-24T07:02:38;6.90;99.90
54642;DHT22;40536;53.194;5.728;2022-11-24T07:05:21;7.50;99.90
54642;DHT22;40536;53.194;5.728;2022-11-24T07:07:58;6.00;99.90
54642;DHT22;40536;53.194;5.728;2022-11-24T07:10:24;7.30;99.90
54642;DHT22;40536;53.194;5.728;2022-11-24T07:12:50;6.80;99.90
54642;DHT22;40536;53.194;5.728;2022-11-24T07:15:16;7.70;99.90
54642;DHT22;40536;53.194;5.728;2022-11-24T07:17:42;6.80;99.90
54642;DHT22;40536;53.194;5.728;2022-11-24T07:20:08;7.80;99.90
54642;DHT22;40536;53.194;5.728;2022-11-24T07:22:34;6.70;99.90
54642;DHT22;40536;53.194;5.728;2022-11-24T07:25:00;6.80;99.90
54642;DHT22;40536;53.194;5.728;2022-11-24T07:27:26;7.00;99.90
54642;DHT22;40536;53.194;5.728;2022-11-24T07:29:52;7.80;99.90
54642;DHT22;40536;53.194;5.728;2022-11-24T07:32:17;7.20;99.90
54642;DHT22;40536;53.194;5.728;2022-11-24T07:34:43;6.80;99.90
54642;DHT22;40536;53.194;5.728;2022-11-24T07:37:09;6.80;99.90
54642;DHT22;40536;53.194;5.728;2022-11-24T07:39:37;7.10;99.90
54642;DHT22;40536;53.194;5.728;2022-11-24T07:42:03;7.70;99.90
54642;DHT22;40536;53.194;5.728;2022-11-24T07:44:29;6.90;99.90
54642;DHT22;40536;53.194;5.728;2022-11-24T07:46:55;8.00;99.90
54642;DHT22;40536;53.194;5.728;2022-11-24T07:49:21;8.00;99.90
54642;DHT22;40536;53.194;5.728;2022-11-24T07:51:46;8.00;99.90
54642;DHT22;40536;53.194;5.728;2022-11-24T07:54:12;7.20;99.90
54642;DHT22;40536;53.194;5.728;2022-11-24T07:56:37;8.20;99.90
54642;DHT22;40536;53.194;5.728;2022-11-24T07:59:03;7.70;99.90
54642;DHT22;40536;53.194;5.728;2022-11-24T08:01:29;7.40;99.90
54642;DHT22;40536;53.194;5.728;2022-11-24T08:03:54;8.40;99.90
54642;DHT22;40536;53.194;5.728;2022-11-24T08:06:20;7.60;99.90
54642;DHT22;40536;53.194;5.728;2022-11-24T08:08:46;7.70;99.90
54642;DHT22;40536;53.194;5.728;2022-11-24T08:11:14;7.80;99.90
54642;DHT22;40536;53.194;5.728;2022-11-24T08:13:41;8.00;99.90
54642;DHT22;40536;53.194;5.728;2022-11-24T08:16:10;8.10;99.90
54642;DHT22;40536;53.194;5.728;2022-11-24T08:18:37;8.60;99.90
54642;DHT22;40536;53.194;5.728;2022-11-24T08:21:03;8.60;99.90
54642;DHT22;40536;53.194;5.728;2022-11-24T08:23:29;8.30;99.90
54642;DHT22;40536;53.194;5.728;2022-11-24T08:25:55;8.70;99.90
54642;DHT22;40536;53.194;5.728;2022-11-24T08:28:22;8.40;99.90
54642;DHT22;40536;53.194;5.728;2022-11-24T08:30:48;8.90;99.90
54642;DHT22;40536;53.194;5.728;2022-11-24T08:33:14;8.40;99.90
54642;DHT22;40536;53.194;5.728;2022-11-24T08:35:39;8.30;99.90
54642;DHT22;40536;53.194;5.728;2022-11-24T08:38:05;8.30;99.90
54642;DHT22;40536;53.194;5.728;2022-11-24T08:40:31;8.20;99.90
54642;DHT22;40536;53.194;5.728;2022-11-24T08:42:58;8.80;99.90
54642;DHT22;40536;53.194;5.728;2022-11-24T08:45:25;8.20;99.90
54642;DHT22;40536;53.194;5.728;2022-11-24T08:47:52;8.20;99.90
54642;DHT22;40536;53.194;5.728;2022-11-24T08:50:18;8.90;99.90
54642;DHT22;40536;53.194;5.728;2022-11-24T08:52:44;8.20;99.90
54642;DHT22;40536;53.194;5.728;2022-11-24T08:55:10;9.40;99.90
54642;DHT22;40536;53.194;5.728;2022-11-24T08:57:35;8.40;99.90
54642;DHT22;40536;53.194;5.728;2022-11-24T09:00:05;8.50;99.90
54642;DHT22;40536;53.194;5.728;2022-11-24T09:02:31;8.50;99.90
54642;DHT22;40536;53.194;5.728;2022-11-24T09:04:57;8.80;99.90
54642;DHT22;40536;53.194;5.728;2022-11-24T09:07:22;8.50;99.90
54642;DHT22;40536;53.194;5.728;2022-11-24T09:09:48;8.60;99.90
54642;DHT22;40536;53.194;5.728;2022-11-24T09:12:14;8.80;99.90
54642;DHT22;40536;53.194;5.728;2022-11-24T09:14:39;8.80;99.90
54642;DHT22;40536;53.194;5.728;2022-11-24T09:17:05;9.50;99.90
54642;DHT22;40536;53.194;5.728;2022-11-24T09:19:30;8.30;99.90
54642;DHT22;40536;53.194;5.728;2022-11-24T09:21:56;8.40;99.90
54642;DHT22;40536;53.194;5.728;2022-11-24T09:24:22;9.00;99.90
54642;DHT22;40536;53.194;5.728;2022-11-24T09:26:48;8.40;99.90
54642;DHT22;40536;53.194;5.728;2022-11-24T09:29:13;8.30;99.90
54642;DHT22;40536;53.194;5.728;2022-11-24T09:31:39;8.50;99.90
54642;DHT22;40536;53.194;5.728;2022-11-24T09:34:07;9.10;99.90
54642;DHT22;40536;53.194;5.728;2022-11-24T09:36:33;8.30;99.90
54642;DHT22;40536;53.194;5.728;2022-11-24T09:38:59;9.50;99.90
54642;DHT22;40536;53.194;5.728;2022-11-24T09:49:55;8.50;99.90
54642;DHT22;40536;53.194;5.728;2022-11-24T09:52:48;8.50;99.90
54642;DHT22;40536;53.194;5.728;2022-11-24T09:55:43;8.60;99.90
54642;DHT22;40536;53.194;5.728;2022-11-24T10:01:04;8.50;99.90
54642;DHT22;40536;53.194;5.728;2022-11-24T10:06:04;8.60;99.90
54642;DHT22;40536;53.194;5.728;2022-11-24T10:11:14;8.80;99.90
54642;DHT22;40536;53.194;5.728;2022-11-24T10:16:27;9.20;99.90
54642;DHT22;40536;53.194;5.728;2022-11-24T10:21:49;8.70;99.90
54642;DHT22;40536;53.194;5.728;2022-11-24T10:27:06;9.60;99.90
54642;DHT22;40536;53.194;5.728;2022-11-24T10:29:39;8.70;99.90
54642;DHT22;40536;53.194;5.728;2022-11-24T10:32:25;9.50;99.90
54642;DHT22;40536;53.194;5.728;2022-11-24T10:34:53;8.80;99.90
54642;DHT22;40536;53.194;5.728;2022-11-24T10:37:44;10.00;99.90
54642;DHT22;40536;53.194;5.728;2022-11-24T10:40:30;8.80;99.90
54642;DHT22;40536;53.194;5.728;2022-11-24T10:42:58;8.80;99.90
54642;DHT22;40536;53.194;5.728;2022-11-24T10:45:26;8.90;99.90
54642;DHT22;40536;53.194;5.728;2022-11-24T10:47:52;9.00;99.90
54642;DHT22;40536;53.194;5.728;2022-11-24T10:50:30;9.90;99.90
54642;DHT22;40536;53.194;5.728;2022-11-24T10:53:17;10.00;99.90
54642;DHT22;40536;53.194;5.728;2022-11-24T10:58:33;9.60;99.90
54642;DHT22;40536;53.194;5.728;2022-11-24T11:01:17;9.00;99.90
54642;DHT22;40536;53.194;5.728;2022-11-24T11:03:54;9.00;99.90
54642;DHT22;40536;53.194;5.728;2022-11-24T11:06:31;9.00;99.90
54642;DHT22;40536;53.194;5.728;2022-11-24T11:11:32;9.10;99.90
54642;DHT22;40536;53.194;5.728;2022-11-24T11:14:00;9.10;99.90
54642;DHT22;40536;53.194;5.728;2022-11-24T11:24:38;9.30;99.90
54642;DHT22;40536;53.194;5.728;2022-11-24T11:27:24;9.30;99.90
54642;DHT22;40536;53.194;5.728;2022-11-24T11:29:51;9.30;99.90
54642;DHT22;40536;53.194;5.728;2022-11-24T11:32:25;9.40;99.90
54642;DHT22;40536;53.194;5.728;2022-11-24T11:34:55;9.40;99.90
54642;DHT22;40536;53.194;5.728;2022-11-24T11:37:25;9.50;99.90
54642;DHT22;40536;53.194;5.728;2022-11-24T11:39:53;9.60;99.90
54642;DHT22;40536;53.194;5.728;2022-11-24T11:45:10;9.70;99.90
54642;DHT22;40536;53.194;5.728;2022-11-24T11:47:49;9.60;99.90
54642;DHT22;40536;53.194;5.728;2022-11-24T11:50:23;9.70;99.90
54642;DHT22;40536;53.194;5.728;2022-11-24T11:52:53;9.70;99.90
54642;DHT22;40536;53.194;5.728;2022-11-24T11:58:23;10.10;99.90
54642;DHT22;40536;53.194;5.728;2022-11-24T12:12:22;9.90;99.90
54642;DHT22;40536;53.194;5.728;2022-11-24T12:17:56;10.00;99.90
54642;DHT22;40536;53.194;5.728;2022-11-24T12:20:49;10.10;99.90
54642;DHT22;40536;53.194;5.728;2022-11-24T12:23:35;10.20;99.90
54642;DHT22;40536;53.194;5.728;2022-11-24T12:26:08;10.10;99.90
54642;DHT22;40536;53.194;5.728;2022-11-24T12:28:51;10.10;99.90
54642;DHT22;40536;53.194;5.728;2022-11-24T12:42:42;10.30;99.90
54642;DHT22;40536;53.194;5.728;2022-11-24T12:47:57;10.30;99.90
54642;DHT22;40536;53.194;5.728;2022-11-24T12:50:29;10.40;99.90
54642;DHT22;40536;53.194;5.728;2022-11-24T12:53:03;10.40;99.90
54642;DHT22;40536;53.194;5.728;2022-11-24T12:55:29;10.40;99.90
54642;DHT22;40536;53.194;5.728;2022-11-24T13:01:11;10.50;99.90
54642;DHT22;40536;53.194;5.728;2022-11-24T13:04:03;10.50;99.90
54642;DHT22;40536;53.194;5.728;2022-11-24T13:09:16;10.50;99.90
54642;DHT22;40536;53.194;5.728;2022-11-24T13:11:44;10.50;99.90
54642;DHT22;40536;53.194;5.728;2022-11-24T13:17:00;10.50;99.90
54642;DHT22;40536;53.194;5.728;2022-11-24T13:19:36;10.50;99.90
54642;DHT22;40536;53.194;5.728;2022-11-24T13:22:15;10.90;99.90
54642;DHT22;40536;53.194;5.728;2022-11-24T13:24:41;10.40;99.90
54642;DHT22;40536;53.194;5.728;2022-11-24T13:29:48;10.30;99.90
54642;DHT22;40536;53.194;5.728;2022-11-24T13:39:59;11.10;99.90
54642;DHT22;40536;53.194;5.728;2022-11-24T13:42:28;10.00;99.90
54642;DHT22;40536;53.194;5.728;2022-11-24T13:44:58;9.90;99.90
54642;DHT22;40536;53.194;5.728;2022-11-24T13:47:40;9.80;99.90
54642;DHT22;40536;53.194;5.728;2022-11-24T13:50:09;9.80;99.90
54642;DHT22;40536;53.194;5.728;2022-11-24T14:00:27;9.70;99.90
54642;DHT22;40536;53.194;5.728;2022-11-24T14:03:03;9.60;99.90
54642;DHT22;40536;53.194;5.728;2022-11-24T14:05:38;9.60;99.90
54642;DHT22;40536;53.194;5.728;2022-11-24T14:08:05;10.30;99.90
54642;DHT22;40536;53.194;5.728;2022-11-24T14:10:35;10.00;99.90
54642;DHT22;40536;53.194;5.728;2022-11-24T14:13:24;10.20;99.90
54642;DHT22;40536;53.194;5.728;2022-11-24T14:16:13;10.00;99.90
54642;DHT22;40536;53.194;5.728;2022-11-24T14:18:41;10.00;99.90
54642;DHT22;40536;53.194;5.728;2022-11-24T14:21:35;9.90;99.90
54642;DHT22;40536;53.194;5.728;2022-11-24T14:26:40;10.00;99.90
54642;DHT22;40536;53.194;5.728;2022-11-24T14:29:26;9.80;99.90
54642;DHT22;40536;53.194;5.728;2022-11-24T14:32:01;9.70;99.90
54642;DHT22;40536;53.194;5.728;2022-11-24T14:34:30;9.70;99.90
54642;DHT22;40536;53.194;5.728;2022-11-24T14:36:57;9.70;99.90
54642;DHT22;40536;53.194;5.728;2022-11-24T14:39:25;9.80;99.90
54642;DHT22;40536;53.194;5.728;2022-11-24T14:41:52;9.50;99.90
54642;DHT22;40536;53.194;5.728;2022-11-24T14:44:22;9.50;99.90
54642;DHT22;40536;53.194;5.728;2022-11-24T14:46:49;9.50;99.90
54642;DHT22;40536;53.194;5.728;2022-11-24T14:49:20;9.40;99.90
54642;DHT22;40536;53.194;5.728;2022-11-24T14:52:12;9.30;99.90
54642;DHT22;40536;53.194;5.728;2022-11-24T14:54:50;9.40;99.90
54642;DHT22;40536;53.194;5.728;2022-11-24T14:57:31;9.20;99.90
54642;DHT22;40536;53.194;5.728;2022-11-24T15:00:23;9.10;99.90
54642;DHT22;40536;53.194;5.728;2022-11-24T15:02:53;9.00;99.90
54642;DHT22;40536;53.194;5.728;2022-11-24T15:05:21;8.90;99.90
54642;DHT22;40536;53.194;5.728;2022-11-24T15:08:09;8.90;99.90
54642;DHT22;40536;53.194;5.728;2022-11-24T15:10:37;8.80;99.90
54642;DHT22;40536;53.194;5.728;2022-11-24T15:13:25;8.80;99.90
54642;DHT22;40536;53.194;5.728;2022-11-24T15:15:57;8.60;99.90
54642;DHT22;40536;53.194;5.728;2022-11-24T15:18:42;8.50;99.90
54642;DHT22;40536;53.194;5.728;2022-11-24T15:21:09;8.50;99.90
54642;DHT22;40536;53.194;5.728;2022-11-24T15:23:38;8.50;99.90
54642;DHT22;40536;53.194;5.728;2022-11-24T15:28:36;8.50;99.90
54642;DHT22;40536;53.194;5.728;2022-11-24T15:31:04;8.60;99.90
54642;DHT22;40536;53.194;5.728;2022-11-24T15:33:30;8.40;99.90
54642;DHT22;40536;53.194;5.728;2022-11-24T15:35:56;8.30;99.90
54642;DHT22;40536;53.194;5.728;2022-11-24T15:38:23;8.70;99.90
54642;DHT22;40536;53.194;5.728;2022-11-24T15:40:51;8.40;99.90
54642;DHT22;40536;53.194;5.728;2022-11-24T15:43:38;9.00;99.90
54642;DHT22;40536;53.194;5.728;2022-11-24T15:46:05;8.40;99.90
54642;DHT22;40536;53.194;5.728;2022-11-24T15:48:31;8.10;99.90
54642;DHT22;40536;53.194;5.728;2022-11-24T15:50:58;8.30;99.90
54642;DHT22;40536;53.194;5.728;2022-11-24T15:53:36;8.10;99.90
54642;DHT22;40536;53.194;5.728;2022-11-24T15:56:06;8.00;99.90
54642;DHT22;40536;53.194;5.728;2022-11-24T15:58:32;7.90;99.90
54642;DHT22;40536;53.194;5.728;2022-11-24T16:00:58;7.80;99.90
54642;DHT22;40536;53.194;5.728;2022-11-24T16:03:23;7.80;99.90
54642;DHT22;40536;53.194;5.728;2022-11-24T16:05:51;7.90;99.90
54642;DHT22;40536;53.194;5.728;2022-11-24T16:08:18;7.70;99.90
54642;DHT22;40536;53.194;5.728;2022-11-24T16:10:44;7.70;99.90
54642;DHT22;40536;53.194;5.728;2022-11-24T16:13:10;7.60;99.90
54642;DHT22;40536;53.194;5.728;2022-11-24T16:15:36;7.50;99.90
54642;DHT22;40536;53.194;5.728;2022-11-24T16:18:03;7.50;99.90
54642;DHT22;40536;53.194;5.728;2022-11-24T16:20:33;7.40;99.90
54642;DHT22;40536;53.194;5.728;2022-11-24T16:23:01;7.40;99.90
54642;DHT22;40536;53.194;5.728;2022-11-24T16:25:27;7.40;99.90
54642;DHT22;40536;53.194;5.728;2022-11-24T16:27:53;8.50;99.90
54642;DHT22;40536;53.194;5.728;2022-11-24T16:30:18;7.50;99.90
54642;DHT22;40536;53.194;5.728;2022-11-24T16:32:44;7.50;99.90
54642;DHT22;40536;53.194;5.728;2022-11-24T16:35:09;8.50;99.90
54642;DHT22;40536;53.194;5.728;2022-11-24T16:37:35;7.60;99.90
54642;DHT22;40536;53.194;5.728;2022-11-24T16:40:01;8.40;99.90
54642;DHT22;40536;53.194;5.728;2022-11-24T16:42:27;7.60;99.90
54642;DHT22;40536;53.194;5.728;2022-11-24T16:44:54;8.60;99.90
54642;DHT22;40536;53.194;5.728;2022-11-24T16:47:23;7.60;99.90
54642;DHT22;40536;53.194;5.728;2022-11-24T16:49:57;7.60;99.90
54642;DHT22;40536;53.194;5.728;2022-11-24T16:52:32;7.60;99.90
54642;DHT22;40536;53.194;5.728;2022-11-24T16:55:01;8.30;99.90
54642;DHT22;40536;53.194;5.728;2022-11-24T16:57:26;7.50;99.90
54642;DHT22;40536;53.194;5.728;2022-11-24T16:59:52;7.50;99.90
54642;DHT22;40536;53.194;5.728;2022-11-24T17:02:28;7.50;99.90
54642;DHT22;40536;53.194;5.728;2022-11-24T17:04:54;7.60;99.90
54642;DHT22;40536;53.194;5.728;2022-11-24T17:07:22;6.30;99.90
54642;DHT22;40536;53.194;5.728;2022-11-24T17:09:52;6.30;99.90
54642;DHT22;40536;53.194;5.728;2022-11-24T17:12:19;7.50;99.90
54642;DHT22;40536;53.194;5.728;2022-11-24T17:14:52;8.90;99.90
54642;DHT22;40536;53.194;5.728;2022-11-24T17:17:20;7.70;99.90
54642;DHT22;40536;53.194;5.728;2022-11-24T17:19:46;8.00;99.90
54642;DHT22;40536;53.194;5.728;2022-11-24T17:22:12;7.50;99.90
54642;DHT22;40536;53.194;5.728;2022-11-24T17:24:41;8.90;99.90
54642;DHT22;40536;53.194;5.728;2022-11-24T17:27:09;7.60;99.90
54642;DHT22;40536;53.194;5.728;2022-11-24T17:29:35;7.40;99.90
54642;DHT22;40536;53.194;5.728;2022-11-24T17:32:03;7.50;99.90
54642;DHT22;40536;53.194;5.728;2022-11-24T17:34:32;7.40;99.90
54642;DHT22;40536;53.194;5.728;2022-11-24T17:39:27;7.40;99.90
54642;DHT22;40536;53.194;5.728;2022-11-24T17:41:57;7.50;99.90
54642;DHT22;40536;53.194;5.728;2022-11-24T17:44:24;8.50;99.90
54642;DHT22;40536;53.194;5.728;2022-11-24T17:46:53;7.50;99.90
54642;DHT22;40536;53.194;5.728;2022-11-24T17:49:20;7.40;99.90
54642;DHT22;40536;53.194;5.728;2022-11-24T17:51:50;7.50;99.90
54642;DHT22;40536;53.194;5.728;2022-11-24T17:54:17;7.50;99.90
54642;DHT22;40536;53.194;5.728;2022-11-24T17:56:43;7.80;99.90
54642;DHT22;40536;53.194;5.728;2022-11-24T17:59:13;8.80;99.90
54642;DHT22;40536;53.194;5.728;2022-11-24T18:01:41;8.50;99.90
54642;DHT22;40536;53.194;5.728;2022-11-24T18:04:17;7.80;99.90
54642;DHT22;40536;53.194;5.728;2022-11-24T18:07:27;7.50;99.90
54642;DHT22;40536;53.194;5.728;2022-11-24T18:10:30;7.50;99.90
54642;DHT22;40536;53.194;5.728;2022-11-24T18:13:34;8.30;99.90
54642;DHT22;40536;53.194;5.728;2022-11-24T18:16:08;6.70;99.90
54642;DHT22;40536;53.194;5.728;2022-11-24T18:19:02;7.60;99.90
54642;DHT22;40536;53.194;5.728;2022-11-24T18:21:37;7.30;99.90
54642;DHT22;40536;53.194;5.728;2022-11-24T18:24:10;7.30;99.90
54642;DHT22;40536;53.194;5.728;2022-11-24T18:26:42;8.60;99.90
54642;DHT22;40536;53.194;5.728;2022-11-24T18:29:33;8.10;99.90
54642;DHT22;40536;53.194;5.728;2022-11-24T18:32:01;7.10;99.90
54642;DHT22;40536;53.194;5.728;2022-11-24T18:34:40;8.60;99.90
54642;DHT22;40536;53.194;5.728;2022-11-24T18:37:21;7.00;99.90
54642;DHT22;40536;53.194;5.728;2022-11-24T18:40:04;8.60;99.90
54642;DHT22;40536;53.194;5.728;2022-11-24T18:42:30;7.00;99.90
54642;DHT22;40536;53.194;5.728;2022-11-24T18:44:57;7.10;99.90